Time;durP1;ratioP1;P1;durP2;ratioP2;P2;SDS_P1;SDS_P2;PMS_P1;PMS_P2;Temp;Humidity;BMP_temperature;BMP_pressure;BME280_temperature;BME280_humidity;BME280_pressure;Samples;Min_cycle;Max_cycle;Signal;HPM_P1;HPM_P2
2021/10/19 00:02:06;;;;;;;8.80;6.00;;;;;;;4.83;97.34;100645.00;1633516;86;21136;-78
2021/10/19 00:04:34;;;;;;;9.58;5.47;;;;;;;4.78;97.60;100654.58;1621078;86;21048;-79
2021/10/19 00:07:00;;;;;;;10.23;5.03;;;;;;;4.71;97.90;100651.57;1620848;86;21131;-78
2021/10/19 00:09:28;;;;;;;10.50;5.53;;;;;;;4.65;98.15;100651.62;1638775;86;21040;-77
2021/10/19 00:11:54;;;;;;;7.67;4.90;;;;;;;4.58;98.26;100647.30;1629350;86;21162;-75
2021/10/19 00:14:22;;;;;;;8.23;5.05;;;;;;;4.52;98.43;100653.84;1620415;88;21132;-75
2021/10/19 00:16:49;;;;;;;11.33;5.78;;;;;;;4.45;98.54;100652.13;1629477;86;21143;-77
2021/10/19 00:19:15;;;;;;;8.20;5.00;;;;;;;4.37;98.77;100655.64;1634410;86;21124;-78
2021/10/19 00:21:42;;;;;;;12.95;6.22;;;;;;;4.29;99.20;100654.78;1629067;86;21090;-78
2021/10/19 00:24:09;;;;;;;9.78;5.78;;;;;;;4.23;99.43;100658.70;1629413;86;21167;-77
2021/10/19 00:26:35;;;;;;;7.25;4.78;;;;;;;4.18;99.78;100656.55;1629158;86;21107;-77
2021/10/19 00:29:02;;;;;;;9.53;5.08;;;;;;;4.11;99.97;100654.83;1621031;86;21048;-77
2021/10/19 00:31:28;;;;;;;14.78;5.65;;;;;;;4.05;100.00;100661.34;1629757;86;21083;-78
2021/10/19 00:33:55;;;;;;;9.88;5.35;;;;;;;3.97;100.00;100660.06;1620442;85;64810;-78
2021/10/19 00:36:22;;;;;;;10.50;6.03;;;;;;;3.91;100.00;100666.58;1618489;86;21231;-79
2021/10/19 00:38:48;;;;;;;13.18;6.08;;;;;;;3.83;100.00;100666.59;1610478;87;21096;-77
2021/10/19 00:41:15;;;;;;;10.35;6.05;;;;;;;3.78;100.00;100669.64;1617344;87;21130;-80
2021/10/19 00:43:42;;;;;;;12.37;6.33;;;;;;;3.72;100.00;100667.03;1610057;89;22084;-78
2021/10/19 00:46:14;;;;;;;13.60;6.22;;;;;;;3.66;100.00;100669.22;1618341;87;21134;-78
2021/10/19 00:48:40;;;;;;;10.60;6.33;;;;;;;3.61;100.00;100671.37;1619582;87;22535;-79
2021/10/19 00:51:08;;;;;;;13.35;6.30;;;;;;;3.55;100.00;100667.91;1611811;87;21667;-78
2021/10/19 00:53:34;;;;;;;10.90;5.15;;;;;;;3.48;100.00;100667.47;1612863;89;21573;-77
2021/10/19 00:56:01;;;;;;;8.80;4.50;;;;;;;3.41;100.00;100677.89;1613903;87;21184;-78
2021/10/19 00:58:27;;;;;;;11.05;5.87;;;;;;;3.34;100.00;100677.02;1622287;87;21017;-81
2021/10/19 01:00:54;;;;;;;10.68;6.25;;;;;;;3.26;100.00;100672.22;1613986;87;21098;-81
2021/10/19 01:03:20;;;;;;;8.55;5.05;;;;;;;3.21;100.00;100677.86;1611166;88;21520;-82
2021/10/19 01:05:46;;;;;;;9.73;5.70;;;;;;;3.15;100.00;100677.39;1615338;87;21072;-81
2021/10/19 01:08:13;;;;;;;11.03;5.37;;;;;;;3.11;100.00;100675.67;1611135;87;21108;-78
2021/10/19 01:10:43;;;;;;;9.78;5.28;;;;;;;3.09;100.00;100682.16;1626147;87;21117;-80
2021/10/19 01:13:11;;;;;;;9.33;4.92;;;;;;;3.05;100.00;100683.02;1590374;88;21191;-80
2021/10/19 01:15:38;;;;;;;9.88;5.80;;;;;;;3.01;100.00;100689.07;1617743;87;21517;-80
2021/10/19 01:18:04;;;;;;;11.75;6.22;;;;;;;2.97;100.00;100687.76;1611107;87;21095;-78
2021/10/19 01:20:33;;;;;;;10.88;5.90;;;;;;;2.91;100.00;100688.62;1611135;87;21585;-78
2021/10/19 01:23:01;;;;;;;11.57;6.50;;;;;;;2.88;100.00;100686.02;1616296;87;21168;-78
2021/10/19 01:25:30;;;;;;;12.93;6.62;;;;;;;2.83;100.00;100689.02;1632903;87;21146;-79
2021/10/19 01:28:01;;;;;;;10.70;6.45;;;;;;;2.80;100.00;100692.47;1620562;87;20985;-79
2021/10/19 01:30:28;;;;;;;9.90;6.22;;;;;;;2.77;100.00;100691.61;1621391;87;20985;-80
2021/10/19 01:32:55;;;;;;;14.70;7.17;;;;;;;2.75;100.00;100697.23;1624954;87;21144;-82
2021/10/19 01:35:36;;;;;;;11.48;7.12;;;;;;;2.72;100.00;100698.09;1619332;87;21087;-82
2021/10/19 01:38:05;;;;;;;17.65;7.55;;;;;;;2.72;100.00;100698.09;1612174;87;21133;-82
2021/10/19 01:40:33;;;;;;;;;;;;;;;2.69;100.00;100705.45;1615384;87;21130;-84
2021/10/19 01:43:00;;;;;;;13.93;6.75;;;;;;;2.68;100.00;100699.80;1633242;87;20163;-85
2021/10/19 01:45:26;;;;;;;11.28;6.65;;;;;;;2.65;100.00;100702.40;1614388;87;21080;-86
2021/10/19 01:47:52;;;;;;;6.55;3.75;;;;;;;2.65;100.00;100705.00;1630538;87;21095;-83
2021/10/19 01:50:19;;;;;;;9.55;5.78;;;;;;;2.64;100.00;100703.24;1617089;87;21182;-86
2021/10/19 01:52:46;;;;;;;13.83;6.95;;;;;;;2.63;100.00;100708.45;1624352;87;21178;-85
2021/10/19 01:55:12;;;;;;;13.85;6.95;;;;;;;2.61;100.00;100712.34;1618321;87;21105;-84
2021/10/19 01:57:40;;;;;;;17.77;8.13;;;;;;;2.59;100.00;100714.50;1617984;87;21346;-84
2021/10/19 02:00:10;;;;;;;15.35;7.75;;;;;;;2.56;100.00;100710.16;1611434;87;22147;-81
2021/10/19 02:02:40;;;;;;;14.05;7.33;;;;;;;2.55;100.00;100710.14;1617784;87;21164;-80
2021/10/19 02:05:10;;;;;;;13.15;7.42;;;;;;;2.52;100.00;100710.56;1611874;87;21573;-81
2021/10/19 02:07:38;;;;;;;12.28;7.10;;;;;;;2.49;100.00;100711.85;1617985;87;21181;-80
2021/10/19 02:10:06;;;;;;;14.58;7.40;;;;;;;2.48;100.00;100715.73;1627694;87;21085;-81
2021/10/19 02:12:32;;;;;;;16.20;7.08;;;;;;;2.48;100.00;100709.23;1621302;87;21647;-82
2021/10/19 02:15:00;;;;;;;13.28;7.17;;;;;;;2.45;100.00;100717.03;1618580;87;21167;-82
2021/10/19 02:17:27;;;;;;;13.98;7.10;;;;;;;2.44;100.00;100717.88;1616715;87;21634;-82
2021/10/19 02:19:54;;;;;;;14.20;7.33;;;;;;;2.41;100.00;100715.27;1617087;87;21095;-82
2021/10/19 02:22:21;;;;;;;11.45;6.87;;;;;;;2.38;100.00;100734.31;1624037;87;21148;-82
2021/10/19 02:24:48;;;;;;;14.18;7.30;;;;;;;2.38;100.00;100734.31;1610811;87;21107;-79
2021/10/19 02:27:16;;;;;;;11.15;5.60;;;;;;;2.34;100.00;100730.39;1611101;87;21166;-78
2021/10/19 02:29:42;;;;;;;9.50;5.75;;;;;;;2.34;100.00;100730.39;1616312;87;21117;-77
2021/10/19 02:32:08;;;;;;;12.07;6.33;;;;;;;2.35;100.00;100733.02;1609952;87;21253;-77
2021/10/19 02:34:35;;;;;;;11.45;6.10;;;;;;;2.37;100.00;100738.20;1630393;85;77738;-78
2021/10/19 02:37:02;;;;;;;14.35;6.45;;;;;;;2.37;100.00;100735.59;1641122;87;21161;-79
2021/10/19 02:39:28;;;;;;;9.90;5.17;;;;;;;2.36;100.00;100742.97;1640794;87;21115;-79
2021/10/19 02:41:55;;;;;;;10.55;5.37;;;;;;;2.37;100.00;100740.80;1648709;85;21581;-81
2021/10/19 02:44:21;;;;;;;11.20;6.70;;;;;;;2.33;100.00;100739.06;1640743;87;21099;-80
2021/10/19 02:46:47;;;;;;;12.33;7.37;;;;;;;2.33;100.00;100735.16;1649955;85;21053;-81
2021/10/19 02:49:14;;;;;;;12.23;6.20;;;;;;;2.30;100.00;100735.58;1648855;85;21076;-81
2021/10/19 02:51:40;;;;;;;15.78;7.00;;;;;;;2.34;100.00;100751.19;1654377;85;21149;-81
2021/10/19 02:54:07;;;;;;;15.40;7.75;;;;;;;2.34;100.00;100751.19;1648726;85;21044;-81
2021/10/19 02:56:33;;;;;;;13.13;7.50;;;;;;;2.34;100.00;100751.19;1647544;85;21113;-81
2021/10/19 02:59:00;;;;;;;18.17;7.70;;;;;;;2.34;100.00;100753.78;1648908;85;21052;-79
2021/10/19 03:01:26;;;;;;;15.48;6.97;;;;;;;2.33;100.00;100753.36;1650664;85;21043;-77
2021/10/19 03:03:52;;;;;;;14.60;8.08;;;;;;;2.33;100.00;100748.16;1654351;85;21840;-77
2021/10/19 03:08:33;;;;;;;17.07;7.80;;;;;;;2.35;100.00;100752.91;1776261;79;22797;-75
2021/10/19 03:10:59;;;;;;;12.90;6.70;;;;;;;2.26;100.00;100757.20;1724283;83;21058;-76
2021/10/19 03:13:28;;;;;;;14.58;7.42;;;;;;;2.25;100.00;100764.54;1715361;81;21109;-77
2021/10/19 03:15:56;;;;;;;12.85;6.97;;;;;;;2.20;100.00;100758.45;1713890;82;20977;-77
2021/10/19 03:18:22;;;;;;;16.97;7.60;;;;;;;2.20;100.00;100758.45;1727256;83;21020;-75
2021/10/19 03:20:50;;;;;;;15.35;7.33;;;;;;;2.19;100.00;100765.82;1725233;83;21063;-77
2021/10/19 03:23:17;;;;;;;13.90;7.95;;;;;;;2.18;100.00;100771.86;1724963;83;21146;-77
2021/10/19 03:25:45;;;;;;;12.65;6.72;;;;;;;2.16;100.00;100781.37;1724651;83;21333;-76
2021/10/19 03:28:11;;;;;;;11.60;7.12;;;;;;;2.16;100.00;100781.80;1726164;83;21558;-75
2021/10/19 03:30:38;;;;;;;11.28;5.95;;;;;;;2.15;100.00;100786.14;1727508;83;21326;-77
2021/10/19 03:33:04;;;;;;;12.28;6.28;;;;;;;2.14;100.00;100784.41;1710717;82;33955;-80
2021/10/19 03:35:31;;;;;;;13.18;6.55;;;;;;;2.15;100.00;100782.23;1693204;84;21036;-82
2021/10/19 03:37:57;;;;;;;12.80;7.35;;;;;;;2.15;100.00;100788.73;1696095;83;21124;-81
2021/10/19 03:40:24;;;;;;;14.68;8.03;;;;;;;2.17;100.00;100789.63;1691975;84;21000;-79
2021/10/19 03:42:51;;;;;;;17.17;8.38;;;;;;;2.18;100.00;100793.95;1696910;84;21609;-75
2021/10/19 03:45:18;;;;;;;13.78;7.47;;;;;;;2.18;100.00;100793.95;1667973;84;21064;-75
2021/10/19 03:47:45;;;;;;;14.63;7.60;;;;;;;2.18;100.00;100793.95;1662528;84;21175;-79
2021/10/19 03:50:13;;;;;;;16.25;7.70;;;;;;;2.20;100.00;100797.43;1689885;84;21125;-77
2021/10/19 03:52:40;;;;;;;11.95;6.90;;;;;;;2.23;100.00;100796.58;1690825;83;21096;-75
2021/10/19 03:55:07;;;;;;;14.85;8.08;;;;;;;2.24;100.00;100795.74;1686083;84;21062;-74
2021/10/19 03:57:36;;;;;;;13.18;7.40;;;;;;;2.20;100.00;100792.23;1630221;86;21122;-73
2021/10/19 04:00:05;;;;;;;15.98;7.25;;;;;;;2.20;100.00;100792.23;1628820;86;21069;-74
2021/10/19 04:02:33;;;;;;;12.95;7.00;;;;;;;2.19;100.00;100793.11;1628964;86;26497;-74
2021/10/19 04:05:00;;;;;;;11.55;6.80;;;;;;;2.18;100.00;100796.55;1655769;85;21761;-75
2021/10/19 04:07:27;;;;;;;11.75;5.28;;;;;;;2.16;100.00;100798.26;1637949;86;21121;-75
2021/10/19 04:09:53;;;;;;;12.37;7.20;;;;;;;2.14;100.00;100801.30;1609677;88;21101;-76
2021/10/19 04:12:20;;;;;;;14.58;6.00;;;;;;;2.08;100.00;100799.94;1611199;88;21149;-76
2021/10/19 04:14:47;;;;;;;12.37;6.62;;;;;;;2.05;100.00;100799.92;1609940;88;21138;-76
2021/10/19 04:17:16;;;;;;;14.65;7.72;;;;;;;2.02;100.00;100807.67;1609128;88;21782;-74
2021/10/19 04:19:44;;;;;;;10.25;5.10;;;;;;;1.98;100.00;100808.50;1607684;88;21602;-77
2021/10/19 04:22:10;;;;;;;13.78;6.15;;;;;;;1.94;100.00;100806.75;1609783;88;21069;-77
2021/10/19 04:24:37;;;;;;;17.48;5.65;;;;;;;1.88;100.00;100812.31;1610202;88;21117;-77
2021/10/19 04:27:04;;;;;;;13.50;7.60;;;;;;;1.81;100.00;100811.81;1606027;88;21161;-77
2021/10/19 04:29:31;;;;;;;13.65;7.62;;;;;;;1.81;100.00;100811.81;1610673;88;21089;-80
2021/10/19 04:31:58;;;;;;;17.17;8.25;;;;;;;1.76;100.00;100818.70;1613638;88;21619;-82
2021/10/19 04:34:25;;;;;;;16.87;8.48;;;;;;;1.69;100.00;100836.38;1610945;87;21556;-78
2021/10/19 04:36:51;;;;;;;20.52;7.72;;;;;;;1.69;100.00;100836.38;1615141;87;21144;-81
2021/10/19 04:39:20;;;;;;;16.23;8.13;;;;;;;1.67;100.00;100840.23;1615608;87;21140;-77
2021/10/19 04:41:47;;;;;;;23.62;7.80;;;;;;;1.61;100.00;100848.38;1621785;87;21076;-80
2021/10/19 04:44:13;;;;;;;16.48;8.48;;;;;;;1.61;100.00;100848.38;1617090;88;20978;-79
2021/10/19 04:46:43;;;;;;;19.40;8.57;;;;;;;1.58;100.00;100847.06;1617530;87;21030;-79
2021/10/19 04:49:09;;;;;;;15.78;8.28;;;;;;;1.58;100.00;100850.95;1614638;88;21108;-79
2021/10/19 04:51:36;;;;;;;14.18;6.55;;;;;;;1.57;100.00;100850.09;1616804;86;21166;-82
2021/10/19 04:54:03;;;;;;;13.83;6.85;;;;;;;1.59;100.00;100860.51;1611270;85;20962;-82
2021/10/19 04:56:29;;;;;;;13.70;6.37;;;;;;;1.59;100.00;100860.51;1618367;84;21297;-81
2021/10/19 04:58:56;;;;;;;8.78;5.17;;;;;;;1.60;100.00;100864.83;1628122;84;21042;-82
2021/10/19 05:01:23;;;;;;;12.18;5.90;;;;;;;1.63;100.00;100860.95;1618189;85;21011;-82
2021/10/19 05:03:50;;;;;;;20.50;7.30;;;;;;;1.71;100.00;100863.66;1616236;88;21181;-82
2021/10/19 05:06:17;;;;;;;16.30;8.98;;;;;;;1.71;100.00;100863.66;1604128;88;21068;-82
2021/10/19 05:08:45;;;;;;;14.70;6.90;;;;;;;1.81;100.00;100872.84;1624854;87;21089;-81
2021/10/19 05:11:13;;;;;;;22.45;9.08;;;;;;;1.81;100.00;100872.84;1647108;85;20980;-82
2021/10/19 05:13:40;;;;;;;14.70;8.03;;;;;;;1.88;100.00;100875.95;1641670;87;21114;-82
2021/10/19 05:16:07;;;;;;;19.73;8.80;;;;;;;1.93;100.00;100875.99;1643050;86;21161;-82
2021/10/19 05:18:33;;;;;;;23.10;10.00;;;;;;;1.96;100.00;100868.69;1684707;83;21024;-82
2021/10/19 05:21:00;;;;;;;20.12;9.93;;;;;;;1.99;100.00;100866.11;1674960;84;21112;-83
2021/10/19 05:23:27;;;;;;;16.80;9.23;;;;;;;2.01;100.00;100868.30;1685270;84;21055;-80
2021/10/19 05:25:54;;;;;;;24.05;11.93;;;;;;;2.00;100.00;100869.13;1694409;83;21027;-83
2021/10/19 05:28:20;;;;;;;29.75;13.08;;;;;;;2.05;100.00;100864.88;1675246;84;21159;-84
2021/10/19 05:30:48;;;;;;;26.50;12.68;;;;;;;2.49;100.00;100877.39;1679830;83;20984;-77
2021/10/19 05:33:15;;;;;;;18.57;10.60;;;;;;;3.22;100.00;100874.80;1685639;81;20991;-76
2021/10/19 05:35:41;;;;;;;19.25;10.90;;;;;;;4.02;100.00;100879.85;1665238;83;20965;-77
2021/10/19 05:38:08;;;;;;;22.07;10.18;;;;;;;4.83;100.00;100881.19;1663206;84;21006;-83
2021/10/19 05:40:34;;;;;;;15.70;8.88;;;;;;;5.75;100.00;100888.27;1664668;83;21066;-84
2021/10/19 05:43:01;;;;;;;14.13;7.80;;;;;;;6.51;100.00;100887.81;1622235;86;20924;-83
2021/10/19 05:45:28;;;;;;;17.70;7.55;;;;;;;7.20;100.00;100888.91;1609288;87;21093;-82
2021/10/19 05:47:54;;;;;;;10.88;7.20;;;;;;;7.84;95.46;100890.29;1612815;88;21092;-85
2021/10/19 05:50:20;;;;;;;12.28;6.70;;;;;;;8.44;90.00;100890.75;1615485;88;21882;-84
2021/10/19 05:52:47;;;;;;;11.73;7.03;;;;;;;8.98;85.96;100880.20;1606971;88;21988;-81
2021/10/19 05:55:13;;;;;;;12.55;7.33;;;;;;;9.56;83.31;100891.33;1606591;88;21104;-84
2021/10/19 05:57:41;;;;;;;9.25;5.90;;;;;;;10.08;79.60;100888.89;1605395;87;21093;-83
2021/10/19 06:00:08;;;;;;;11.68;6.58;;;;;;;10.57;75.35;100886.42;1659352;85;21125;-84
2021/10/19 06:02:42;;;;;;;10.13;5.97;;;;;;;11.06;73.70;100885.14;1653455;86;21173;-83
2021/10/19 06:05:08;;;;;;;11.88;6.72;;;;;;;11.66;69.56;100879.95;1606888;88;21546;-83
2021/10/19 06:07:35;;;;;;;11.28;6.10;;;;;;;12.13;67.17;100880.33;1663740;85;21051;-84
2021/10/19 06:10:04;;;;;;;9.55;5.85;;;;;;;12.46;63.20;100880.16;1654450;86;21071;-83
2021/10/19 06:12:32;;;;;;;10.53;6.35;;;;;;;12.82;62.13;100887.78;1653748;86;21013;-83
2021/10/19 06:14:59;;;;;;;11.93;7.00;;;;;;;13.17;58.76;100886.53;1643120;86;21167;-82
2021/10/19 06:17:27;;;;;;;11.35;6.15;;;;;;;13.47;58.17;100883.27;1635843;86;21584;-83
2021/10/19 06:19:53;;;;;;;10.63;6.00;;;;;;;13.75;56.75;100880.90;1640133;86;22135;-82
2021/10/19 06:22:22;;;;;;;11.30;6.30;;;;;;;14.12;55.00;100882.11;1648521;86;21630;-83
2021/10/19 06:24:49;;;;;;;8.75;5.75;;;;;;;14.48;53.76;100877.97;1642047;86;21091;-82
2021/10/19 06:27:15;;;;;;;9.20;6.22;;;;;;;14.78;53.43;100885.60;1642099;86;21171;-83
2021/10/19 06:29:45;;;;;;;9.13;4.70;;;;;;;15.15;51.37;100888.46;1641476;86;21165;-83
2021/10/19 06:32:13;;;;;;;7.12;4.55;;;;;;;15.41;48.26;100876.67;1604820;89;21078;-81
2021/10/19 06:34:40;;;;;;;7.67;4.87;;;;;;;15.68;46.93;100887.36;1609318;88;21053;-83
2021/10/19 06:37:06;;;;;;;7.28;5.00;;;;;;;15.81;46.32;100886.38;1636892;86;21143;-83
2021/10/19 06:39:34;;;;;;;10.63;4.97;;;;;;;16.04;45.64;100885.28;1605787;89;21138;-83
2021/10/19 06:42:01;;;;;;;8.35;4.90;;;;;;;16.33;45.02;100884.33;1596246;89;21660;-84
2021/10/19 06:44:29;;;;;;;7.60;5.08;;;;;;;16.70;44.72;100881.16;1640817;86;21104;-84
2021/10/19 06:46:55;;;;;;;7.67;4.90;;;;;;;17.09;43.26;100889.41;1604722;88;21069;-83
2021/10/19 06:49:22;;;;;;;6.67;5.03;;;;;;;17.19;42.50;100884.02;1608403;87;21026;-81
2021/10/19 06:51:49;;;;;;;9.13;5.22;;;;;;;17.35;40.64;100890.23;1645596;87;21171;-84
2021/10/19 06:54:15;;;;;;;8.28;5.12;;;;;;;17.48;40.25;100884.25;1645921;86;21535;-82
2021/10/19 06:56:42;;;;;;;8.78;5.05;;;;;;;17.64;40.04;100879.80;1607302;89;21091;-83
2021/10/19 06:59:08;;;;;;;10.55;5.72;;;;;;;17.96;39.43;100880.72;1592515;89;21092;-83
2021/10/19 07:01:34;;;;;;;8.35;4.70;;;;;;;18.41;38.00;100878.22;1592679;88;22061;-84
2021/10/19 07:04:03;;;;;;;10.68;4.65;;;;;;;18.71;36.99;100880.04;1602682;88;21088;-83
2021/10/19 07:06:30;;;;;;;7.25;4.85;;;;;;;18.97;36.66;100879.36;1607607;87;21108;-83
2021/10/19 07:08:57;;;;;;;7.22;4.50;;;;;;;19.17;36.24;100878.16;1604145;89;21535;-84
2021/10/19 07:11:26;;;;;;;7.40;4.50;;;;;;;19.35;35.40;100880.19;1608390;89;21142;-84
2021/10/19 07:13:55;;;;;;;7.22;4.05;;;;;;;19.68;34.51;100875.90;1644733;86;21037;-83
2021/10/19 07:16:22;;;;;;;6.25;4.00;;;;;;;19.64;32.91;100880.16;1647944;86;21064;-85
2021/10/19 07:18:48;;;;;;;11.57;4.30;;;;;;;19.24;33.62;100880.83;1611288;88;21288;-85
2021/10/19 07:21:15;;;;;;;6.75;3.55;;;;;;;19.04;33.79;100883.38;1628601;86;21088;-85
2021/10/19 07:23:42;;;;;;;6.60;3.65;;;;;;;19.06;34.54;100885.96;1643213;86;21088;-84
2021/10/19 07:26:08;;;;;;;8.50;3.35;;;;;;;19.23;34.09;100880.92;1586806;89;21465;-84
2021/10/19 07:28:37;;;;;;;11.12;4.17;;;;;;;19.30;34.46;100886.27;1589399;89;21097;-85
2021/10/19 07:31:04;;;;;;;10.48;4.30;;;;;;;19.53;33.76;100883.50;1593443;89;21204;-86
2021/10/19 07:33:30;;;;;;;7.37;3.50;;;;;;;19.91;33.46;100877.11;1587773;89;21787;-84
2021/10/19 07:35:57;;;;;;;5.17;3.10;;;;;;;20.29;32.88;100882.25;1613648;88;21312;-82
2021/10/19 07:38:23;;;;;;;7.80;3.37;;;;;;;20.39;31.62;100874.01;1639306;86;21039;-83
2021/10/19 07:40:50;;;;;;;5.62;3.30;;;;;;;20.71;30.34;100875.90;1645144;86;21524;-83
2021/10/19 07:43:18;;;;;;;6.62;3.22;;;;;;;20.65;30.01;100871.44;1592000;89;21433;-83
2021/10/19 07:45:44;;;;;;;10.05;3.60;;;;;;;20.72;30.14;100880.27;1585612;89;22106;-81
2021/10/19 07:48:11;;;;;;;6.72;3.67;;;;;;;20.78;29.44;100876.83;1644783;86;21090;-85
2021/10/19 07:50:37;;;;;;;5.78;3.58;;;;;;;20.71;30.14;100882.59;1653818;86;21065;-84
2021/10/19 07:53:05;;;;;;;7.75;3.80;;;;;;;20.50;29.72;100874.16;1652294;86;21052;-85
2021/10/19 07:55:33;;;;;;;11.20;4.58;;;;;;;20.15;29.77;100873.79;1633692;86;21113;-85
2021/10/19 07:58:00;;;;;;;7.72;4.35;;;;;;;20.23;31.04;100875.98;1589574;89;21156;-85
2021/10/19 08:00:28;;;;;;;5.37;3.60;;;;;;;20.64;29.84;100879.10;1615983;87;21685;-86
2021/10/19 08:02:57;;;;;;;5.28;3.37;;;;;;;20.92;29.56;100880.27;1646409;86;21059;-84
2021/10/19 08:05:24;;;;;;;5.92;3.22;;;;;;;21.22;29.34;100882.28;1646417;86;21028;-85
2021/10/19 08:07:55;;;;;;;5.75;2.70;;;;;;;21.60;28.78;100882.27;1614949;87;21594;-83
2021/10/19 08:10:23;;;;;;;8.33;2.58;;;;;;;21.84;28.97;100876.98;1636137;87;21082;-84
2021/10/19 08:12:51;;;;;;;4.67;2.70;;;;;;;22.02;27.51;100872.56;1653180;85;21058;-83
2021/10/19 08:15:21;;;;;;;5.40;3.08;;;;;;;21.94;27.80;100879.35;1660770;85;21077;-82
2021/10/19 08:17:48;;;;;;;6.55;3.10;;;;;;;21.88;27.85;100881.63;1624680;87;21120;-82
2021/10/19 08:20:17;;;;;;;5.50;3.00;;;;;;;22.05;27.49;100877.23;1638207;87;21173;-83
2021/10/19 08:22:45;;;;;;;9.00;4.00;;;;;;;22.41;27.14;100881.74;1631826;87;25623;-80
2021/10/19 08:25:13;;;;;;;4.40;2.72;;;;;;;22.59;25.68;100885.34;1622020;87;21051;-80
2021/10/19 08:27:42;;;;;;;6.37;3.05;;;;;;;22.53;25.77;100887.16;1645594;87;21003;-80
2021/10/19 08:30:11;;;;;;;6.05;2.70;;;;;;;22.14;25.82;100885.09;1623109;87;21078;-80
2021/10/19 08:32:40;;;;;;;6.22;2.70;;;;;;;21.65;26.21;100889.52;1647782;87;21546;-78
2021/10/19 08:35:07;;;;;;;5.55;2.90;;;;;;;21.64;26.76;100892.30;1619292;87;21107;-77
2021/10/19 08:37:35;;;;;;;6.50;2.92;;;;;;;21.62;27.09;100887.53;1603460;88;21084;-78
2021/10/19 08:40:02;;;;;;;5.10;2.65;;;;;;;21.87;27.43;100895.52;1617295;88;21477;-78
2021/10/19 08:42:29;;;;;;;3.33;1.92;;;;;;;22.19;26.60;100901.70;1617225;88;21090;-80
2021/10/19 08:44:56;;;;;;;4.85;2.17;;;;;;;22.46;25.76;100902.02;1590203;88;21132;-79
2021/10/19 08:47:23;;;;;;;4.60;2.10;;;;;;;21.88;27.21;100909.31;1591292;90;21152;-80
2021/10/19 08:49:51;;;;;;;3.42;1.57;;;;;;;21.30;26.83;100906.69;1645159;86;21628;-79
2021/10/19 08:52:18;;;;;;;4.67;2.05;;;;;;;20.60;27.78;100905.20;1656226;85;21157;-80
2021/10/19 08:54:44;;;;;;;10.53;2.08;;;;;;;19.71;28.96;100914.92;1637307;86;21684;-80
2021/10/19 08:57:14;;;;;;;3.25;1.77;;;;;;;19.00;29.25;100918.35;1659115;85;21126;-83
2021/10/19 08:59:44;;;;;;;3.90;2.10;;;;;;;18.27;31.15;100921.67;1658295;85;21123;-82
2021/10/19 09:02:13;;;;;;;7.70;2.00;;;;;;;17.77;31.81;100926.15;1619940;87;21121;-81
2021/10/19 09:04:42;;;;;;;3.15;1.90;;;;;;;17.73;32.35;100918.41;1621691;87;21011;-81
2021/10/19 09:07:11;;;;;;;6.25;2.10;;;;;;;17.97;32.13;100910.92;1614853;87;21664;-80
2021/10/19 09:09:40;;;;;;;3.02;1.75;;;;;;;18.39;31.71;100928.11;1603718;87;21126;-81
2021/10/19 09:12:08;;;;;;;5.92;1.98;;;;;;;18.98;31.47;100925.14;1630058;86;21101;-81
2021/10/19 09:14:43;;;;;;;3.42;1.65;;;;;;;19.45;30.54;100912.52;1625580;86;21699;-81
2021/10/19 09:17:09;;;;;;;3.65;1.75;;;;;;;19.59;28.63;100917.00;1646978;86;21094;-80
2021/10/19 09:19:37;;;;;;;4.60;1.52;;;;;;;19.61;28.50;100922.63;1632802;86;21071;-82
2021/10/19 09:22:08;;;;;;;2.42;1.37;;;;;;;19.67;28.94;100917.40;1589660;89;21104;-80
2021/10/19 09:24:36;;;;;;;3.00;1.30;;;;;;;19.81;28.88;100902.72;1592439;89;21039;-82
2021/10/19 09:27:08;;;;;;;4.17;1.50;;;;;;;20.00;27.97;100913.58;1652941;85;21606;-82
2021/10/19 09:29:42;;;;;;;4.22;1.85;;;;;;;20.34;27.52;100913.59;1653453;84;21049;-81
2021/10/19 09:32:09;;;;;;;2.65;1.32;;;;;;;20.53;27.63;100906.53;1661446;86;21097;-82
2021/10/19 09:34:44;;;;;;;5.78;1.67;;;;;;;20.45;27.63;100907.51;1608302;88;21067;-82
2021/10/19 09:37:17;;;;;;;2.98;1.20;;;;;;;20.21;27.78;100901.97;1626281;87;21116;-83
2021/10/19 09:39:48;;;;;;;3.40;1.22;;;;;;;20.16;26.40;100910.29;1607394;87;21106;-81
2021/10/19 09:42:24;;;;;;;5.03;1.57;;;;;;;19.99;26.92;100918.52;1601868;88;21170;-81
2021/10/19 09:44:59;;;;;;;2.87;1.35;;;;;;;20.03;26.57;100922.72;1600124;87;21120;-80
2021/10/19 09:47:39;;;;;;;2.75;1.27;;;;;;;20.32;26.08;100923.04;1612555;87;21169;-80
2021/10/19 09:50:08;;;;;;;1.70;1.10;;;;;;;20.29;25.63;100919.23;1616264;87;21101;-82
2021/10/19 09:52:39;;;;;;;6.35;1.47;;;;;;;20.10;26.14;100922.70;1635128;84;21580;-82
2021/10/19 09:55:11;;;;;;;4.87;1.45;;;;;;;19.46;26.82;100929.80;1619241;87;21591;-80
2021/10/19 09:57:39;;;;;;;3.00;1.50;;;;;;;19.25;27.66;100925.75;1624077;87;21115;-81
2021/10/19 10:00:11;;;;;;;3.20;1.60;;;;;;;19.26;27.73;100932.34;1627826;87;21285;-82
2021/10/19 10:02:40;;;;;;;4.42;1.50;;;;;;;19.39;28.20;100927.09;1627660;87;21098;-83
2021/10/19 10:05:07;;;;;;;3.60;1.50;;;;;;;19.70;28.16;100913.22;1634030;87;21028;-82
2021/10/19 10:07:40;;;;;;;3.75;1.67;;;;;;;19.72;27.64;100907.80;1626855;86;21858;-82
2021/10/19 10:10:07;;;;;;;4.08;1.30;;;;;;;19.73;26.75;100913.02;1612868;87;21104;-81
2021/10/19 10:12:34;;;;;;;5.08;1.85;;;;;;;19.88;26.29;100921.90;1616854;87;22293;-82
2021/10/19 10:15:00;;;;;;;2.45;1.37;;;;;;;20.16;25.98;100926.33;1611938;84;21057;-82
2021/10/19 10:17:29;;;;;;;3.30;1.60;;;;;;;20.49;25.76;100917.06;1610756;87;21134;-82
2021/10/19 10:20:08;;;;;;;7.10;1.92;;;;;;;20.47;25.68;100910.95;1610733;87;21165;-83
2021/10/19 10:22:43;;;;;;;4.22;1.37;;;;;;;20.71;25.71;100913.86;1622253;87;21065;-81
2021/10/19 10:25:16;;;;;;;5.05;1.80;;;;;;;20.55;25.46;100911.31;1627611;87;21671;-81
2021/10/19 10:27:42;;;;;;;4.80;2.00;;;;;;;20.57;25.36;100901.40;1622433;87;21035;-82
2021/10/19 10:30:22;;;;;;;2.95;1.70;;;;;;;20.52;26.14;100905.69;1625509;87;21086;-80
2021/10/19 10:32:49;;;;;;;3.95;1.52;;;;;;;20.54;25.67;100904.23;1619734;87;21114;-81
2021/10/19 10:35:18;;;;;;;4.58;1.70;;;;;;;20.25;25.53;100910.17;1605053;88;21074;-82
2021/10/19 10:37:55;;;;;;;2.87;1.80;;;;;;;20.26;25.93;100907.38;1617152;87;21236;-80
2021/10/19 10:40:34;;;;;;;3.00;2.00;;;;;;;20.40;25.64;100897.59;1617949;87;21121;-81
2021/10/19 10:43:23;;;;;;;5.42;1.70;;;;;;;20.51;25.17;100898.60;1615830;87;21113;-81
2021/10/19 10:46:14;;;;;;;4.55;1.60;;;;;;;20.63;24.41;100904.98;1613719;87;21354;-82
2021/10/19 10:48:42;;;;;;;3.40;1.52;;;;;;;20.78;24.50;100908.95;1621595;87;21120;-79
2021/10/19 10:51:10;;;;;;;4.05;1.70;;;;;;;20.68;23.98;100898.86;1605351;87;21574;-80
2021/10/19 10:53:44;;;;;;;2.40;1.40;;;;;;;20.61;25.02;100902.88;1611756;88;21580;-81
2021/10/19 10:56:13;;;;;;;3.62;1.62;;;;;;;20.78;24.79;100900.92;1605779;88;21103;-81
2021/10/19 10:58:41;;;;;;;2.45;1.55;;;;;;;20.82;24.56;100899.73;1631787;87;21129;-82
2021/10/19 11:01:28;;;;;;;4.65;1.75;;;;;;;20.68;25.39;100896.19;1629233;87;21096;-81
2021/10/19 11:04:11;;;;;;;1.65;1.22;;;;;;;20.62;24.19;100899.27;1609001;87;21116;-81
2021/10/19 11:06:41;;;;;;;11.60;2.22;;;;;;;20.56;23.20;100899.66;1611244;87;21140;-82
2021/10/19 11:09:12;;;;;;;6.45;1.65;;;;;;;20.59;22.95;100899.48;1616742;87;21186;-82
2021/10/19 11:11:44;;;;;;;3.45;1.50;;;;;;;20.30;23.44;100891.52;1609896;88;21112;-84
2021/10/19 11:14:13;;;;;;;3.20;1.47;;;;;;;20.12;23.62;100881.53;1608889;88;21588;-82
2021/10/19 11:16:48;;;;;;;3.30;1.40;;;;;;;19.88;23.81;100886.67;1605917;88;21115;-83
2021/10/19 11:19:30;;;;;;;8.23;1.62;;;;;;;19.71;23.43;100888.20;1604420;88;21118;-82
2021/10/19 11:22:03;;;;;;;3.62;1.60;;;;;;;19.75;23.89;100884.39;1611255;88;21147;-81
2021/10/19 11:24:35;;;;;;;3.80;1.42;;;;;;;19.94;24.04;100883.21;1612784;88;21110;-82
2021/10/19 11:27:05;;;;;;;3.58;1.20;;;;;;;20.19;23.45;100883.33;1597737;89;21737;-76
2021/10/19 11:29:38;;;;;;;1.95;1.30;;;;;;;20.01;23.33;100885.38;1617265;87;21517;-78